sensor_id;sensor_type;location;lat;lon;timestamp;P1;durP1;ratioP1;P2;durP2;ratioP2
28762;SDS011;15918;51.270;6.522;2023-05-24T00:00:55;9.48;;;2.80;;
28762;SDS011;15918;51.270;6.522;2023-05-24T00:03:21;10.43;;;3.40;;
28762;SDS011;15918;51.270;6.522;2023-05-24T00:05:47;9.35;;;3.05;;
28762;SDS011;15918;51.270;6.522;2023-05-24T00:08:12;13.05;;;2.78;;
28762;SDS011;15918;51.270;6.522;2023-05-24T00:10:40;9.90;;;2.85;;
28762;SDS011;15918;51.270;6.522;2023-05-24T00:13:06;10.02;;;3.30;;
28762;SDS011;15918;51.270;6.522;2023-05-24T00:15:31;9.05;;;2.92;;
28762;SDS011;15918;51.270;6.522;2023-05-24T00:17:57;12.48;;;3.85;;
28762;SDS011;15918;51.270;6.522;2023-05-24T00:20:22;8.45;;;3.22;;
28762;SDS011;15918;51.270;6.522;2023-05-24T00:22:48;10.88;;;3.75;;
28762;SDS011;15918;51.270;6.522;2023-05-24T00:25:14;14.43;;;3.22;;
28762;SDS011;15918;51.270;6.522;2023-05-24T00:27:40;9.30;;;3.03;;
28762;SDS011;15918;51.270;6.522;2023-05-24T00:30:05;12.20;;;3.72;;
28762;SDS011;15918;51.270;6.522;2023-05-24T00:32:31;13.23;;;3.67;;
28762;SDS011;15918;51.270;6.522;2023-05-24T00:34:57;13.80;;;3.25;;
28762;SDS011;15918;51.270;6.522;2023-05-24T00:37:23;10.10;;;3.40;;
28762;SDS011;15918;51.270;6.522;2023-05-24T00:39:48;8.98;;;3.17;;
28762;SDS011;15918;51.270;6.522;2023-05-24T00:42:14;7.18;;;3.00;;
28762;SDS011;15918;51.270;6.522;2023-05-24T00:44:39;9.77;;;3.30;;
28762;SDS011;15918;51.270;6.522;2023-05-24T00:47:05;10.82;;;3.50;;
28762;SDS011;15918;51.270;6.522;2023-05-24T00:49:31;9.50;;;3.40;;
28762;SDS011;15918;51.270;6.522;2023-05-24T00:51:58;11.88;;;3.63;;
28762;SDS011;15918;51.270;6.522;2023-05-24T00:54:24;14.35;;;3.67;;
28762;SDS011;15918;51.270;6.522;2023-05-24T00:56:50;11.73;;;3.63;;
28762;SDS011;15918;51.270;6.522;2023-05-24T00:59:17;8.13;;;3.10;;
28762;SDS011;15918;51.270;6.522;2023-05-24T01:01:43;16.50;;;3.83;;
28762;SDS011;15918;51.270;6.522;2023-05-24T01:04:11;17.10;;;3.95;;
28762;SDS011;15918;51.270;6.522;2023-05-24T01:06:57;11.57;;;3.42;;
28762;SDS011;15918;51.270;6.522;2023-05-24T01:10:16;6.82;;;3.20;;
28762;SDS011;15918;51.270;6.522;2023-05-24T01:18:04;8.88;;;3.40;;
28762;SDS011;15918;51.270;6.522;2023-05-24T01:20:34;10.60;;;3.83;;
28762;SDS011;15918;51.270;6.522;2023-05-24T01:23:24;15.80;;;3.85;;
28762;SDS011;15918;51.270;6.522;2023-05-24T01:28:30;11.73;;;3.58;;
28762;SDS011;15918;51.270;6.522;2023-05-24T01:30:57;12.25;;;3.58;;
28762;SDS011;15918;51.270;6.522;2023-05-24T01:33:23;11.93;;;3.88;;
28762;SDS011;15918;51.270;6.522;2023-05-24T01:35:50;10.48;;;3.00;;
28762;SDS011;15918;51.270;6.522;2023-05-24T01:38:15;13.60;;;3.63;;
28762;SDS011;15918;51.270;6.522;2023-05-24T01:40:41;10.32;;;4.38;;
28762;SDS011;15918;51.270;6.522;2023-05-24T01:43:16;8.82;;;2.92;;
28762;SDS011;15918;51.270;6.522;2023-05-24T01:46:09;10.43;;;3.63;;
28762;SDS011;15918;51.270;6.522;2023-05-24T01:48:44;8.85;;;3.15;;
28762;SDS011;15918;51.270;6.522;2023-05-24T01:51:15;11.57;;;3.83;;
28762;SDS011;15918;51.270;6.522;2023-05-24T01:53:46;10.18;;;2.95;;
28762;SDS011;15918;51.270;6.522;2023-05-24T01:56:15;10.60;;;3.30;;
28762;SDS011;15918;51.270;6.522;2023-05-24T01:58:43;10.90;;;3.47;;
28762;SDS011;15918;51.270;6.522;2023-05-24T02:01:10;10.38;;;3.33;;
28762;SDS011;15918;51.270;6.522;2023-05-24T02:03:38;10.18;;;3.28;;
28762;SDS011;15918;51.270;6.522;2023-05-24T02:06:04;13.25;;;3.47;;
28762;SDS011;15918;51.270;6.522;2023-05-24T02:08:30;11.23;;;3.10;;
28762;SDS011;15918;51.270;6.522;2023-05-24T02:10:56;8.48;;;3.65;;
28762;SDS011;15918;51.270;6.522;2023-05-24T02:13:21;12.77;;;3.05;;
28762;SDS011;15918;51.270;6.522;2023-05-24T02:15:47;13.40;;;3.83;;
28762;SDS011;15918;51.270;6.522;2023-05-24T02:18:13;9.63;;;3.42;;
28762;SDS011;15918;51.270;6.522;2023-05-24T02:20:42;10.50;;;3.35;;
28762;SDS011;15918;51.270;6.522;2023-05-24T02:23:08;10.48;;;3.85;;
28762;SDS011;15918;51.270;6.522;2023-05-24T02:25:33;9.25;;;3.22;;
28762;SDS011;15918;51.270;6.522;2023-05-24T02:27:59;10.98;;;3.65;;
28762;SDS011;15918;51.270;6.522;2023-05-24T02:30:25;7.55;;;3.13;;
28762;SDS011;15918;51.270;6.522;2023-05-24T02:32:50;9.27;;;3.10;;
28762;SDS011;15918;51.270;6.522;2023-05-24T02:35:16;18.52;;;3.60;;
28762;SDS011;15918;51.270;6.522;2023-05-24T02:37:42;8.82;;;2.90;;
28762;SDS011;15918;51.270;6.522;2023-05-24T02:40:07;11.38;;;3.17;;
28762;SDS011;15918;51.270;6.522;2023-05-24T02:42:33;8.68;;;3.42;;
28762;SDS011;15918;51.270;6.522;2023-05-24T02:44:59;8.45;;;3.38;;
28762;SDS011;15918;51.270;6.522;2023-05-24T02:47:25;8.85;;;3.35;;
28762;SDS011;15918;51.270;6.522;2023-05-24T02:49:51;8.60;;;3.50;;
28762;SDS011;15918;51.270;6.522;2023-05-24T02:52:17;11.80;;;3.22;;
28762;SDS011;15918;51.270;6.522;2023-05-24T02:54:45;10.50;;;3.40;;
28762;SDS011;15918;51.270;6.522;2023-05-24T02:57:11;8.63;;;3.50;;
28762;SDS011;15918;51.270;6.522;2023-05-24T02:59:37;9.07;;;3.22;;
28762;SDS011;15918;51.270;6.522;2023-05-24T03:02:02;10.90;;;3.63;;
28762;SDS011;15918;51.270;6.522;2023-05-24T03:04:28;8.55;;;3.10;;
28762;SDS011;15918;51.270;6.522;2023-05-24T03:06:54;12.10;;;3.70;;
28762;SDS011;15918;51.270;6.522;2023-05-24T03:09:20;15.23;;;3.78;;
28762;SDS011;15918;51.270;6.522;2023-05-24T03:11:46;9.55;;;3.25;;
28762;SDS011;15918;51.270;6.522;2023-05-24T03:14:11;11.13;;;3.58;;
28762;SDS011;15918;51.270;6.522;2023-05-24T03:16:37;11.65;;;4.10;;
28762;SDS011;15918;51.270;6.522;2023-05-24T03:19:03;9.65;;;3.55;;
28762;SDS011;15918;51.270;6.522;2023-05-24T03:21:29;12.85;;;3.83;;
28762;SDS011;15918;51.270;6.522;2023-05-24T03:23:56;11.55;;;3.90;;
28762;SDS011;15918;51.270;6.522;2023-05-24T03:26:21;15.32;;;4.03;;
28762;SDS011;15918;51.270;6.522;2023-05-24T03:28:47;6.68;;;3.17;;
28762;SDS011;15918;51.270;6.522;2023-05-24T03:31:15;12.43;;;4.40;;
28762;SDS011;15918;51.270;6.522;2023-05-24T03:33:40;11.07;;;4.53;;
28762;SDS011;15918;51.270;6.522;2023-05-24T03:36:06;11.25;;;4.03;;
28762;SDS011;15918;51.270;6.522;2023-05-24T03:38:32;14.77;;;4.70;;
28762;SDS011;15918;51.270;6.522;2023-05-24T03:40:58;7.88;;;3.63;;
28762;SDS011;15918;51.270;6.522;2023-05-24T03:43:24;14.43;;;4.57;;
28762;SDS011;15918;51.270;6.522;2023-05-24T03:45:50;14.02;;;3.72;;
28762;SDS011;15918;51.270;6.522;2023-05-24T03:48:16;15.60;;;4.32;;
28762;SDS011;15918;51.270;6.522;2023-05-24T03:50:44;14.38;;;4.18;;
28762;SDS011;15918;51.270;6.522;2023-05-24T03:53:10;12.02;;;4.20;;
28762;SDS011;15918;51.270;6.522;2023-05-24T03:55:36;13.38;;;4.43;;
28762;SDS011;15918;51.270;6.522;2023-05-24T03:58:02;11.57;;;3.92;;
28762;SDS011;15918;51.270;6.522;2023-05-24T04:00:28;15.05;;;4.53;;
28762;SDS011;15918;51.270;6.522;2023-05-24T04:02:53;8.60;;;3.90;;
28762;SDS011;15918;51.270;6.522;2023-05-24T04:05:19;14.20;;;4.88;;
28762;SDS011;15918;51.270;6.522;2023-05-24T04:07:45;13.65;;;4.90;;
28762;SDS011;15918;51.270;6.522;2023-05-24T04:10:11;10.10;;;4.10;;
28762;SDS011;15918;51.270;6.522;2023-05-24T04:12:37;9.95;;;3.97;;
28762;SDS011;15918;51.270;6.522;2023-05-24T04:15:04;9.18;;;4.10;;
28762;SDS011;15918;51.270;6.522;2023-05-24T04:17:31;17.25;;;4.82;;
28762;SDS011;15918;51.270;6.522;2023-05-24T04:19:58;13.73;;;4.80;;
28762;SDS011;15918;51.270;6.522;2023-05-24T04:22:24;9.30;;;4.25;;
28762;SDS011;15918;51.270;6.522;2023-05-24T04:24:50;17.95;;;4.40;;
28762;SDS011;15918;51.270;6.522;2023-05-24T04:27:16;17.65;;;9.48;;
28762;SDS011;15918;51.270;6.522;2023-05-24T04:29:42;16.05;;;10.02;;
28762;SDS011;15918;51.270;6.522;2023-05-24T04:32:09;14.20;;;9.15;;
28762;SDS011;15918;51.270;6.522;2023-05-24T04:34:38;17.23;;;11.13;;
28762;SDS011;15918;51.270;6.522;2023-05-24T04:37:06;16.13;;;9.10;;
28762;SDS011;15918;51.270;6.522;2023-05-24T04:39:32;17.80;;;8.38;;
28762;SDS011;15918;51.270;6.522;2023-05-24T04:41:58;15.45;;;8.00;;
28762;SDS011;15918;51.270;6.522;2023-05-24T04:44:24;19.45;;;9.07;;
28762;SDS011;15918;51.270;6.522;2023-05-24T04:46:51;18.48;;;7.80;;
28762;SDS011;15918;51.270;6.522;2023-05-24T04:49:17;16.27;;;7.90;;
28762;SDS011;15918;51.270;6.522;2023-05-24T04:51:43;22.95;;;9.60;;
28762;SDS011;15918;51.270;6.522;2023-05-24T04:54:09;15.48;;;8.30;;
28762;SDS011;15918;51.270;6.522;2023-05-24T04:56:35;17.00;;;8.32;;
28762;SDS011;15918;51.270;6.522;2023-05-24T04:59:02;28.00;;;16.08;;
28762;SDS011;15918;51.270;6.522;2023-05-24T05:01:29;25.70;;;12.93;;
28762;SDS011;15918;51.270;6.522;2023-05-24T05:03:55;20.48;;;10.05;;
28762;SDS011;15918;51.270;6.522;2023-05-24T05:06:21;16.23;;;9.15;;
28762;SDS011;15918;51.270;6.522;2023-05-24T05:08:46;20.58;;;9.25;;
28762;SDS011;15918;51.270;6.522;2023-05-24T05:11:12;19.35;;;8.02;;
28762;SDS011;15918;51.270;6.522;2023-05-24T05:13:39;17.52;;;7.47;;
28762;SDS011;15918;51.270;6.522;2023-05-24T05:16:04;22.52;;;7.20;;
28762;SDS011;15918;51.270;6.522;2023-05-24T05:18:30;15.77;;;6.68;;
28762;SDS011;15918;51.270;6.522;2023-05-24T05:20:57;13.90;;;6.35;;
28762;SDS011;15918;51.270;6.522;2023-05-24T05:23:23;16.25;;;5.97;;
28762;SDS011;15918;51.270;6.522;2023-05-24T05:25:49;17.92;;;6.30;;
28762;SDS011;15918;51.270;6.522;2023-05-24T05:28:15;16.25;;;6.03;;
28762;SDS011;15918;51.270;6.522;2023-05-24T05:30:41;15.98;;;6.50;;
28762;SDS011;15918;51.270;6.522;2023-05-24T05:33:06;16.50;;;6.28;;
28762;SDS011;15918;51.270;6.522;2023-05-24T05:35:32;16.95;;;5.65;;
28762;SDS011;15918;51.270;6.522;2023-05-24T05:37:57;13.95;;;5.70;;
28762;SDS011;15918;51.270;6.522;2023-05-24T05:40:23;17.83;;;5.95;;
28762;SDS011;15918;51.270;6.522;2023-05-24T05:42:48;20.45;;;5.93;;
28762;SDS011;15918;51.270;6.522;2023-05-24T05:45:14;12.75;;;5.10;;
28762;SDS011;15918;51.270;6.522;2023-05-24T05:47:40;12.13;;;4.93;;
28762;SDS011;15918;51.270;6.522;2023-05-24T05:50:07;18.77;;;6.05;;
28762;SDS011;15918;51.270;6.522;2023-05-24T05:52:33;18.58;;;5.88;;
28762;SDS011;15918;51.270;6.522;2023-05-24T05:54:58;19.80;;;5.78;;
28762;SDS011;15918;51.270;6.522;2023-05-24T05:57:24;15.57;;;6.10;;
28762;SDS011;15918;51.270;6.522;2023-05-24T05:59:50;18.17;;;6.90;;
28762;SDS011;15918;51.270;6.522;2023-05-24T06:02:16;17.13;;;6.20;;
28762;SDS011;15918;51.270;6.522;2023-05-24T06:04:46;18.40;;;5.80;;
28762;SDS011;15918;51.270;6.522;2023-05-24T06:07:12;16.33;;;6.28;;
28762;SDS011;15918;51.270;6.522;2023-05-24T06:09:39;19.73;;;6.15;;
28762;SDS011;15918;51.270;6.522;2023-05-24T06:12:05;20.73;;;6.57;;
28762;SDS011;15918;51.270;6.522;2023-05-24T06:14:31;20.05;;;6.45;;
28762;SDS011;15918;51.270;6.522;2023-05-24T06:16:58;16.42;;;6.47;;
28762;SDS011;15918;51.270;6.522;2023-05-24T06:19:24;16.77;;;6.05;;
28762;SDS011;15918;51.270;6.522;2023-05-24T06:21:50;20.77;;;5.75;;
28762;SDS011;15918;51.270;6.522;2023-05-24T06:24:17;20.73;;;6.60;;
28762;SDS011;15918;51.270;6.522;2023-05-24T06:26:45;21.45;;;6.25;;
28762;SDS011;15918;51.270;6.522;2023-05-24T06:29:11;22.98;;;6.45;;
28762;SDS011;15918;51.270;6.522;2023-05-24T06:31:37;24.05;;;5.80;;
28762;SDS011;15918;51.270;6.522;2023-05-24T06:34:03;21.90;;;7.13;;
28762;SDS011;15918;51.270;6.522;2023-05-24T06:36:29;19.80;;;5.45;;
28762;SDS011;15918;51.270;6.522;2023-05-24T06:38:58;23.27;;;6.45;;
28762;SDS011;15918;51.270;6.522;2023-05-24T06:41:23;21.63;;;6.53;;
28762;SDS011;15918;51.270;6.522;2023-05-24T06:43:50;21.13;;;5.70;;
28762;SDS011;15918;51.270;6.522;2023-05-24T06:46:16;21.80;;;5.90;;
28762;SDS011;15918;51.270;6.522;2023-05-24T06:48:42;21.67;;;6.88;;
28762;SDS011;15918;51.270;6.522;2023-05-24T06:51:07;23.85;;;6.88;;
28762;SDS011;15918;51.270;6.522;2023-05-24T06:53:33;18.85;;;6.85;;
28762;SDS011;15918;51.270;6.522;2023-05-24T06:55:59;20.05;;;6.53;;
28762;SDS011;15918;51.270;6.522;2023-05-24T06:58:24;21.08;;;6.82;;
28762;SDS011;15918;51.270;6.522;2023-05-24T07:00:50;21.83;;;6.70;;
28762;SDS011;15918;51.270;6.522;2023-05-24T07:03:17;24.42;;;6.95;;
28762;SDS011;15918;51.270;6.522;2023-05-24T07:05:43;22.92;;;7.68;;
28762;SDS011;15918;51.270;6.522;2023-05-24T07:08:08;21.75;;;7.25;;
28762;SDS011;15918;51.270;6.522;2023-05-24T07:10:34;23.90;;;7.13;;
28762;SDS011;15918;51.270;6.522;2023-05-24T07:13:00;28.60;;;6.57;;
28762;SDS011;15918;51.270;6.522;2023-05-24T07:15:25;27.05;;;7.63;;
28762;SDS011;15918;51.270;6.522;2023-05-24T07:17:51;21.88;;;6.70;;
28762;SDS011;15918;51.270;6.522;2023-05-24T07:20:17;19.58;;;6.43;;
28762;SDS011;15918;51.270;6.522;2023-05-24T07:22:42;20.17;;;6.07;;
28762;SDS011;15918;51.270;6.522;2023-05-24T07:25:08;24.55;;;6.40;;
28762;SDS011;15918;51.270;6.522;2023-05-24T07:27:34;26.35;;;6.75;;
28762;SDS011;15918;51.270;6.522;2023-05-24T07:30:00;19.80;;;6.72;;
28762;SDS011;15918;51.270;6.522;2023-05-24T07:32:26;21.80;;;6.55;;
28762;SDS011;15918;51.270;6.522;2023-05-24T07:34:52;21.48;;;6.22;;
28762;SDS011;15918;51.270;6.522;2023-05-24T07:37:18;23.33;;;6.57;;
28762;SDS011;15918;51.270;6.522;2023-05-24T07:39:44;20.55;;;5.90;;
28762;SDS011;15918;51.270;6.522;2023-05-24T07:42:09;18.88;;;6.00;;
28762;SDS011;15918;51.270;6.522;2023-05-24T07:44:35;26.27;;;6.90;;
28762;SDS011;15918;51.270;6.522;2023-05-24T07:47:01;25.33;;;6.80;;
28762;SDS011;15918;51.270;6.522;2023-05-24T07:49:27;21.98;;;6.97;;
28762;SDS011;15918;51.270;6.522;2023-05-24T07:51:52;25.05;;;7.07;;
28762;SDS011;15918;51.270;6.522;2023-05-24T07:54:22;20.77;;;6.57;;
28762;SDS011;15918;51.270;6.522;2023-05-24T07:56:47;23.60;;;6.82;;
28762;SDS011;15918;51.270;6.522;2023-05-24T07:59:13;19.13;;;6.40;;
28762;SDS011;15918;51.270;6.522;2023-05-24T08:01:39;23.10;;;6.90;;
28762;SDS011;15918;51.270;6.522;2023-05-24T08:04:05;17.10;;;6.55;;
28762;SDS011;15918;51.270;6.522;2023-05-24T08:06:32;21.00;;;6.63;;
28762;SDS011;15918;51.270;6.522;2023-05-24T08:08:59;21.00;;;6.40;;
28762;SDS011;15918;51.270;6.522;2023-05-24T08:11:25;18.85;;;6.85;;
28762;SDS011;15918;51.270;6.522;2023-05-24T08:13:51;19.88;;;7.30;;
28762;SDS011;15918;51.270;6.522;2023-05-24T08:16:17;18.90;;;6.97;;
28762;SDS011;15918;51.270;6.522;2023-05-24T08:18:42;25.90;;;8.05;;
28762;SDS011;15918;51.270;6.522;2023-05-24T08:21:08;23.30;;;6.88;;
28762;SDS011;15918;51.270;6.522;2023-05-24T08:23:34;18.90;;;6.35;;
28762;SDS011;15918;51.270;6.522;2023-05-24T08:26:00;22.95;;;7.03;;
28762;SDS011;15918;51.270;6.522;2023-05-24T08:28:26;20.02;;;6.40;;
28762;SDS011;15918;51.270;6.522;2023-05-24T08:30:53;23.05;;;6.97;;
28762;SDS011;15918;51.270;6.522;2023-05-24T08:33:18;19.92;;;6.05;;
28762;SDS011;15918;51.270;6.522;2023-05-24T08:35:44;26.77;;;7.18;;
28762;SDS011;15918;51.270;6.522;2023-05-24T08:38:10;21.35;;;6.30;;
28762;SDS011;15918;51.270;6.522;2023-05-24T08:40:35;17.77;;;5.78;;
28762;SDS011;15918;51.270;6.522;2023-05-24T08:43:02;20.08;;;6.50;;
28762;SDS011;15918;51.270;6.522;2023-05-24T08:45:35;22.83;;;6.57;;
28762;SDS011;15918;51.270;6.522;2023-05-24T08:48:04;18.42;;;6.47;;
28762;SDS011;15918;51.270;6.522;2023-05-24T08:50:33;19.17;;;6.30;;
28762;SDS011;15918;51.270;6.522;2023-05-24T08:52:59;15.88;;;6.35;;
28762;SDS011;15918;51.270;6.522;2023-05-24T08:55:31;19.33;;;6.43;;
28762;SDS011;15918;51.270;6.522;2023-05-24T08:57:57;19.65;;;6.97;;
28762;SDS011;15918;51.270;6.522;2023-05-24T09:00:24;15.70;;;6.45;;
28762;SDS011;15918;51.270;6.522;2023-05-24T09:02:50;21.05;;;6.35;;
28762;SDS011;15918;51.270;6.522;2023-05-24T09:05:17;16.40;;;6.00;;
28762;SDS011;15918;51.270;6.522;2023-05-24T09:07:46;18.48;;;5.90;;
28762;SDS011;15918;51.270;6.522;2023-05-24T09:10:13;24.13;;;7.00;;
28762;SDS011;15918;51.270;6.522;2023-05-24T09:12:41;18.98;;;6.22;;
28762;SDS011;15918;51.270;6.522;2023-05-24T09:15:09;15.43;;;5.45;;
28762;SDS011;15918;51.270;6.522;2023-05-24T09:17:36;17.25;;;5.75;;
28762;SDS011;15918;51.270;6.522;2023-05-24T09:20:02;22.42;;;6.95;;
28762;SDS011;15918;51.270;6.522;2023-05-24T09:22:30;20.60;;;6.65;;
28762;SDS011;15918;51.270;6.522;2023-05-24T09:25:00;19.65;;;5.85;;
28762;SDS011;15918;51.270;6.522;2023-05-24T09:27:27;18.95;;;5.20;;
28762;SDS011;15918;51.270;6.522;2023-05-24T09:29:56;18.95;;;5.88;;
28762;SDS011;15918;51.270;6.522;2023-05-24T09:32:22;15.82;;;5.72;;
28762;SDS011;15918;51.270;6.522;2023-05-24T09:34:50;20.77;;;5.88;;
28762;SDS011;15918;51.270;6.522;2023-05-24T09:37:18;27.38;;;6.28;;
28762;SDS011;15918;51.270;6.522;2023-05-24T09:39:46;17.08;;;5.50;;
28762;SDS011;15918;51.270;6.522;2023-05-24T09:42:14;20.77;;;6.03;;
28762;SDS011;15918;51.270;6.522;2023-05-24T09:44:41;19.25;;;5.88;;
28762;SDS011;15918;51.270;6.522;2023-05-24T09:47:08;14.23;;;5.40;;
28762;SDS011;15918;51.270;6.522;2023-05-24T09:49:37;18.02;;;5.65;;
28762;SDS011;15918;51.270;6.522;2023-05-24T09:52:03;13.85;;;5.07;;
28762;SDS011;15918;51.270;6.522;2023-05-24T09:54:30;17.23;;;6.32;;
28762;SDS011;15918;51.270;6.522;2023-05-24T09:56:58;19.88;;;5.65;;
28762;SDS011;15918;51.270;6.522;2023-05-24T09:59:26;13.98;;;4.55;;
28762;SDS011;15918;51.270;6.522;2023-05-24T10:01:56;13.05;;;5.30;;
28762;SDS011;15918;51.270;6.522;2023-05-24T10:04:34;20.88;;;6.35;;
28762;SDS011;15918;51.270;6.522;2023-05-24T10:07:00;16.65;;;5.25;;
28762;SDS011;15918;51.270;6.522;2023-05-24T10:09:28;17.58;;;5.55;;
28762;SDS011;15918;51.270;6.522;2023-05-24T10:11:57;17.13;;;6.07;;
28762;SDS011;15918;51.270;6.522;2023-05-24T10:14:36;16.35;;;5.22;;
28762;SDS011;15918;51.270;6.522;2023-05-24T10:17:02;14.98;;;5.15;;
28762;SDS011;15918;51.270;6.522;2023-05-24T10:19:29;14.52;;;5.72;;
28762;SDS011;15918;51.270;6.522;2023-05-24T10:22:00;17.20;;;5.38;;
28762;SDS011;15918;51.270;6.522;2023-05-24T10:24:39;12.80;;;4.88;;
28762;SDS011;15918;51.270;6.522;2023-05-24T10:27:11;17.05;;;5.93;;
28762;SDS011;15918;51.270;6.522;2023-05-24T10:29:47;20.95;;;5.70;;
28762;SDS011;15918;51.270;6.522;2023-05-24T10:32:25;14.05;;;5.13;;
28762;SDS011;15918;51.270;6.522;2023-05-24T10:34:56;18.58;;;4.90;;
28762;SDS011;15918;51.270;6.522;2023-05-24T10:37:23;13.25;;;4.53;;
28762;SDS011;15918;51.270;6.522;2023-05-24T10:39:50;17.70;;;4.68;;
28762;SDS011;15918;51.270;6.522;2023-05-24T10:42:16;15.82;;;4.78;;
28762;SDS011;15918;51.270;6.522;2023-05-24T10:44:42;14.55;;;4.53;;
28762;SDS011;15918;51.270;6.522;2023-05-24T10:47:09;16.17;;;4.63;;
28762;SDS011;15918;51.270;6.522;2023-05-24T10:49:35;12.20;;;4.25;;
28762;SDS011;15918;51.270;6.522;2023-05-24T10:52:12;12.15;;;4.00;;
28762;SDS011;15918;51.270;6.522;2023-05-24T10:54:37;14.85;;;4.20;;
28762;SDS011;15918;51.270;6.522;2023-05-24T10:57:03;9.30;;;3.80;;
28762;SDS011;15918;51.270;6.522;2023-05-24T10:59:37;13.48;;;4.70;;
28762;SDS011;15918;51.270;6.522;2023-05-24T11:02:07;15.07;;;4.38;;
28762;SDS011;15918;51.270;6.522;2023-05-24T11:04:41;13.93;;;4.45;;
28762;SDS011;15918;51.270;6.522;2023-05-24T11:07:10;11.80;;;4.57;;
28762;SDS011;15918;51.270;6.522;2023-05-24T11:09:39;12.35;;;4.35;;
28762;SDS011;15918;51.270;6.522;2023-05-24T11:12:12;14.32;;;4.30;;
28762;SDS011;15918;51.270;6.522;2023-05-24T11:14:40;12.30;;;3.85;;
28762;SDS011;15918;51.270;6.522;2023-05-24T11:17:12;14.43;;;4.43;;
28762;SDS011;15918;51.270;6.522;2023-05-24T11:19:44;12.13;;;4.72;;
28762;SDS011;15918;51.270;6.522;2023-05-24T11:22:12;11.60;;;4.60;;
28762;SDS011;15918;51.270;6.522;2023-05-24T11:24:39;12.80;;;4.47;;
28762;SDS011;15918;51.270;6.522;2023-05-24T11:27:06;10.13;;;4.50;;
28762;SDS011;15918;51.270;6.522;2023-05-24T11:29:32;15.30;;;4.65;;
28762;SDS011;15918;51.270;6.522;2023-05-24T11:32:08;19.27;;;4.93;;
28762;SDS011;15918;51.270;6.522;2023-05-24T11:34:38;11.98;;;4.53;;
28762;SDS011;15918;51.270;6.522;2023-05-24T11:37:04;18.13;;;5.65;;
28762;SDS011;15918;51.270;6.522;2023-05-24T11:39:30;15.15;;;5.10;;
28762;SDS011;15918;51.270;6.522;2023-05-24T11:41:57;12.18;;;4.75;;
28762;SDS011;15918;51.270;6.522;2023-05-24T11:44:23;12.60;;;4.32;;
28762;SDS011;15918;51.270;6.522;2023-05-24T11:46:55;13.18;;;4.72;;
28762;SDS011;15918;51.270;6.522;2023-05-24T11:49:22;12.30;;;4.47;;
28762;SDS011;15918;51.270;6.522;2023-05-24T11:51:48;15.50;;;5.10;;
28762;SDS011;15918;51.270;6.522;2023-05-24T11:54:17;13.07;;;4.78;;
28762;SDS011;15918;51.270;6.522;2023-05-24T11:56:43;13.80;;;4.68;;
28762;SDS011;15918;51.270;6.522;2023-05-24T11:59:14;14.10;;;4.28;;
28762;SDS011;15918;51.270;6.522;2023-05-24T12:01:57;10.90;;;4.15;;
28762;SDS011;15918;51.270;6.522;2023-05-24T12:04:24;13.93;;;5.03;;
28762;SDS011;15918;51.270;6.522;2023-05-24T12:06:50;14.52;;;4.40;;
28762;SDS011;15918;51.270;6.522;2023-05-24T12:09:16;14.50;;;4.65;;
28762;SDS011;15918;51.270;6.522;2023-05-24T12:11:45;11.48;;;4.40;;
28762;SDS011;15918;51.270;6.522;2023-05-24T12:14:13;13.40;;;4.25;;
28762;SDS011;15918;51.270;6.522;2023-05-24T12:16:40;10.98;;;3.95;;
28762;SDS011;15918;51.270;6.522;2023-05-24T12:19:07;15.45;;;4.63;;
28762;SDS011;15918;51.270;6.522;2023-05-24T12:21:39;11.85;;;4.05;;
28762;SDS011;15918;51.270;6.522;2023-05-24T12:24:11;8.82;;;3.83;;
28762;SDS011;15918;51.270;6.522;2023-05-24T12:26:40;16.50;;;4.82;;
28762;SDS011;15918;51.270;6.522;2023-05-24T12:29:10;14.25;;;3.97;;
28762;SDS011;15918;51.270;6.522;2023-05-24T12:31:40;13.13;;;4.35;;
28762;SDS011;15918;51.270;6.522;2023-05-24T12:34:10;16.90;;;4.30;;
28762;SDS011;15918;51.270;6.522;2023-05-24T12:36:37;14.63;;;4.25;;
28762;SDS011;15918;51.270;6.522;2023-05-24T12:39:21;11.38;;;4.22;;
28762;SDS011;15918;51.270;6.522;2023-05-24T12:41:51;10.65;;;4.57;;
28762;SDS011;15918;51.270;6.522;2023-05-24T12:44:32;11.52;;;3.72;;
28762;SDS011;15918;51.270;6.522;2023-05-24T12:47:02;11.77;;;4.07;;
28762;SDS011;15918;51.270;6.522;2023-05-24T12:49:29;10.68;;;4.57;;
28762;SDS011;15918;51.270;6.522;2023-05-24T12:51:55;12.25;;;4.20;;
28762;SDS011;15918;51.270;6.522;2023-05-24T12:54:22;10.80;;;4.40;;
28762;SDS011;15918;51.270;6.522;2023-05-24T12:56:49;8.88;;;4.35;;
28762;SDS011;15918;51.270;6.522;2023-05-24T12:59:15;11.82;;;4.35;;
28762;SDS011;15918;51.270;6.522;2023-05-24T13:01:41;11.43;;;4.07;;
28762;SDS011;15918;51.270;6.522;2023-05-24T13:04:08;10.98;;;4.20;;
28762;SDS011;15918;51.270;6.522;2023-05-24T13:06:37;9.73;;;3.67;;
28762;SDS011;15918;51.270;6.522;2023-05-24T13:09:03;10.45;;;4.13;;
28762;SDS011;15918;51.270;6.522;2023-05-24T13:11:30;9.80;;;4.18;;
28762;SDS011;15918;51.270;6.522;2023-05-24T13:13:56;15.25;;;5.18;;
28762;SDS011;15918;51.270;6.522;2023-05-24T13:16:23;10.07;;;3.90;;
28762;SDS011;15918;51.270;6.522;2023-05-24T13:18:50;11.02;;;4.88;;
28762;SDS011;15918;51.270;6.522;2023-05-24T13:21:16;13.05;;;4.55;;
28762;SDS011;15918;51.270;6.522;2023-05-24T13:23:41;11.57;;;3.88;;
28762;SDS011;15918;51.270;6.522;2023-05-24T13:26:07;10.13;;;4.13;;
28762;SDS011;15918;51.270;6.522;2023-05-24T13:28:33;13.50;;;4.50;;
28762;SDS011;15918;51.270;6.522;2023-05-24T13:30:59;13.00;;;5.15;;
28762;SDS011;15918;51.270;6.522;2023-05-24T13:33:25;13.27;;;4.68;;
28762;SDS011;15918;51.270;6.522;2023-05-24T13:35:51;9.85;;;4.00;;
28762;SDS011;15918;51.270;6.522;2023-05-24T13:38:18;9.77;;;4.35;;
28762;SDS011;15918;51.270;6.522;2023-05-24T13:40:45;10.23;;;4.55;;
28762;SDS011;15918;51.270;6.522;2023-05-24T13:43:11;12.15;;;4.30;;
28762;SDS011;15918;51.270;6.522;2023-05-24T13:45:38;14.57;;;4.45;;
28762;SDS011;15918;51.270;6.522;2023-05-24T13:48:03;11.05;;;4.18;;
28762;SDS011;15918;51.270;6.522;2023-05-24T13:50:32;12.23;;;4.80;;
28762;SDS011;15918;51.270;6.522;2023-05-24T13:52:59;12.00;;;4.03;;
28762;SDS011;15918;51.270;6.522;2023-05-24T13:55:26;15.25;;;4.65;;
28762;SDS011;15918;51.270;6.522;2023-05-24T13:57:56;14.13;;;5.28;;
28762;SDS011;15918;51.270;6.522;2023-05-24T14:00:22;14.63;;;4.68;;
28762;SDS011;15918;51.270;6.522;2023-05-24T14:02:49;10.32;;;4.30;;
28762;SDS011;15918;51.270;6.522;2023-05-24T14:05:15;13.15;;;5.18;;
28762;SDS011;15918;51.270;6.522;2023-05-24T14:07:41;14.02;;;4.78;;
28762;SDS011;15918;51.270;6.522;2023-05-24T14:10:07;12.88;;;4.28;;
28762;SDS011;15918;51.270;6.522;2023-05-24T14:12:33;15.50;;;4.88;;
28762;SDS011;15918;51.270;6.522;2023-05-24T14:14:59;14.48;;;4.78;;
28762;SDS011;15918;51.270;6.522;2023-05-24T14:17:25;12.07;;;4.63;;
28762;SDS011;15918;51.270;6.522;2023-05-24T14:19:51;12.82;;;4.13;;
28762;SDS011;15918;51.270;6.522;2023-05-24T14:22:16;13.48;;;4.47;;
28762;SDS011;15918;51.270;6.522;2023-05-24T14:24:42;10.40;;;4.72;;
28762;SDS011;15918;51.270;6.522;2023-05-24T14:27:07;9.73;;;4.38;;
28762;SDS011;15918;51.270;6.522;2023-05-24T14:29:33;12.68;;;4.45;;
28762;SDS011;15918;51.270;6.522;2023-05-24T14:31:59;14.73;;;5.50;;
28762;SDS011;15918;51.270;6.522;2023-05-24T14:34:24;10.57;;;4.30;;
28762;SDS011;15918;51.270;6.522;2023-05-24T14:36:50;12.23;;;4.78;;
28762;SDS011;15918;51.270;6.522;2023-05-24T14:39:15;13.40;;;4.80;;
28762;SDS011;15918;51.270;6.522;2023-05-24T14:41:41;16.70;;;5.30;;
28762;SDS011;15918;51.270;6.522;2023-05-24T14:44:07;7.93;;;3.78;;